CDG8817 ZYCC-ZSJN
Flight info
| Callsign | CDG8817 |
|---|---|
| Flight time | 1h 55m |
| Altitude | 25600 |
| Route | LEMOT A588 UDETI W106 MAKNO W5 HCH W4 BASOV |
| Aircraft | B738/M-SDE2E3FGHIRWXY/LB1 |
Departure
| Time | 2026-04-22 03:39 |
|---|---|
| Airport | Changchun Longjia International Airport (ZYCC) |
Arrival
| Time | 2026-04-22 05:34 |
|---|---|
| Airport | Jinan Yaoqiang International Airport (ZSJN) |
| Time | Latitude | Longitude | Altitude | Speed | Heading |
|---|---|---|---|---|---|
| 2026-04-22 03:08 | 43.99573 | 125.69815 | 715 ft | 0 kts | 228° |
| 2026-04-22 03:28 | 43.99573 | 125.69816 | 715 ft | 0 kts | 228° |
| 2026-04-22 03:28 | 43.99573 | 125.69815 | 715 ft | 0 kts | 228° |
| 2026-04-22 03:28 | 43.99581 | 125.69828 | 715 ft | 2 kts | 228° |
| 2026-04-22 03:29 | 43.99591 | 125.69843 | 715 ft | 2 kts | 229° |
| 2026-04-22 03:29 | 43.99601 | 125.69859 | 715 ft | 2 kts | 228° |
| 2026-04-22 03:29 | 43.99606 | 125.69878 | 716 ft | 2 kts | 277° |
| 2026-04-22 03:29 | 43.99601 | 125.69897 | 715 ft | 2 kts | 317° |
| 2026-04-22 03:30 | 43.99594 | 125.69903 | 715 ft | 1 kts | 340° |
| 2026-04-22 03:30 | 43.99588 | 125.69906 | 715 ft | 0 kts | 338° |
| 2026-04-22 03:32 | 43.99600 | 125.69899 | 715 ft | 3 kts | 339° |
| 2026-04-22 03:32 | 43.99623 | 125.69896 | 715 ft | 6 kts | 9° |
| 2026-04-22 03:32 | 43.99678 | 125.69926 | 715 ft | 10 kts | 23° |
| 2026-04-22 03:32 | 43.99769 | 125.69963 | 715 ft | 9 kts | 2° |
| 2026-04-22 03:33 | 43.99832 | 125.69952 | 715 ft | 8 kts | 340° |
| 2026-04-22 03:33 | 43.99881 | 125.69907 | 715 ft | 8 kts | 319° |
| 2026-04-22 03:33 | 43.99924 | 125.69856 | 715 ft | 7 kts | 320° |
| 2026-04-22 03:33 | 43.99964 | 125.69810 | 715 ft | 7 kts | 321° |
| 2026-04-22 03:34 | 44.00009 | 125.69791 | 715 ft | 6 kts | 355° |
| 2026-04-22 03:34 | 44.00059 | 125.69768 | 715 ft | 8 kts | 324° |
| 2026-04-22 03:34 | 44.00109 | 125.69713 | 715 ft | 9 kts | 331° |
| 2026-04-22 03:34 | 44.00148 | 125.69716 | 715 ft | 8 kts | 30° |
| 2026-04-22 03:35 | 44.00206 | 125.69797 | 715 ft | 10 kts | 49° |
| 2026-04-22 03:35 | 44.00261 | 125.69886 | 715 ft | 13 kts | 49° |
| 2026-04-22 03:35 | 44.00327 | 125.69992 | 715 ft | 14 kts | 50° |
| 2026-04-22 03:35 | 44.00389 | 125.70093 | 715 ft | 9 kts | 50° |
| 2026-04-22 03:36 | 44.00436 | 125.70146 | 715 ft | 8 kts | 6° |
| 2026-04-22 03:36 | 44.00483 | 125.70113 | 715 ft | 5 kts | 318° |
| 2026-04-22 03:36 | 44.00506 | 125.70084 | 715 ft | 3 kts | 319° |
| 2026-04-22 03:36 | 44.00528 | 125.70058 | 715 ft | 4 kts | 319° |
| 2026-04-22 03:37 | 44.00552 | 125.70026 | 715 ft | 4 kts | 304° |
| 2026-04-22 03:37 | 44.00547 | 125.69985 | 715 ft | 4 kts | 237° |
| 2026-04-22 03:37 | 44.00541 | 125.69974 | 715 ft | 0 kts | 229° |
| 2026-04-22 03:38 | 44.00435 | 125.69804 | 715 ft | 58 kts | 230° |
| 2026-04-22 03:38 | 44.00023 | 125.69138 | 715 ft | 122 kts | 230° |
| 2026-04-22 03:38 | 43.99594 | 125.68452 | 715 ft | 158 kts | 230° |
| 2026-04-22 03:38 | 43.98842 | 125.67278 | 1297 ft | 160 kts | 233° |
| 2026-04-22 03:39 | 43.97837 | 125.65653 | 2002 ft | 174 kts | 236° |
| 2026-04-22 03:39 | 43.97093 | 125.64446 | 2775 ft | 159 kts | 237° |
| 2026-04-22 03:39 | 43.96346 | 125.63245 | 3083 ft | 167 kts | 236° |
| 2026-04-22 03:39 | 43.95587 | 125.62029 | 3492 ft | 167 kts | 236° |
| 2026-04-22 03:40 | 43.94817 | 125.60804 | 3912 ft | 172 kts | 236° |
| 2026-04-22 03:40 | 43.94285 | 125.59952 | 4185 ft | 179 kts | 236° |
| 2026-04-22 03:40 | 43.93444 | 125.58603 | 4589 ft | 192 kts | 236° |
| 2026-04-22 03:40 | 43.92542 | 125.57152 | 4951 ft | 208 kts | 236° |
| 2026-04-22 03:41 | 43.91570 | 125.55598 | 5410 ft | 220 kts | 235° |
| 2026-04-22 03:41 | 43.90160 | 125.53345 | 5937 ft | 243 kts | 234° |
| 2026-04-22 03:41 | 43.89395 | 125.52125 | 6263 ft | 252 kts | 234° |
| 2026-04-22 03:41 | 43.87826 | 125.49619 | 6963 ft | 267 kts | 234° |
| 2026-04-22 03:42 | 43.87015 | 125.48327 | 7437 ft | 270 kts | 234° |
| 2026-04-22 03:42 | 43.85789 | 125.46374 | 8170 ft | 272 kts | 235° |
| 2026-04-22 03:42 | 43.84134 | 125.43732 | 9108 ft | 277 kts | 236° |
| 2026-04-22 03:42 | 43.82869 | 125.41706 | 9803 ft | 280 kts | 236° |
| 2026-04-22 03:43 | 43.81556 | 125.39675 | 10405 ft | 289 kts | 232° |
| 2026-04-22 03:43 | 43.80512 | 125.38451 | 10646 ft | 306 kts | 220° |
| 2026-04-22 03:43 | 43.77734 | 125.37045 | 11201 ft | 339 kts | 192° |
| 2026-04-22 03:43 | 43.75294 | 125.37208 | 11455 ft | 366 kts | 171° |
| 2026-04-22 03:44 | 43.72838 | 125.38307 | 11828 ft | 383 kts | 162° |
| 2026-04-22 03:44 | 43.71160 | 125.39222 | 12139 ft | 390 kts | 161° |
| 2026-04-22 03:44 | 43.68656 | 125.40663 | 12786 ft | 396 kts | 161° |
| 2026-04-22 03:44 | 43.65236 | 125.42656 | 13568 ft | 406 kts | 161° |
| 2026-04-22 03:45 | 43.62618 | 125.44163 | 14237 ft | 411 kts | 162° |
| 2026-04-22 03:45 | 43.60876 | 125.45155 | 14664 ft | 415 kts | 162° |
| 2026-04-22 03:45 | 43.57255 | 125.47196 | 15522 ft | 422 kts | 163° |
| 2026-04-22 03:45 | 43.55447 | 125.48212 | 15980 ft | 425 kts | 163° |
| 2026-04-22 03:46 | 43.51761 | 125.50284 | 16814 ft | 433 kts | 163° |
| 2026-04-22 03:46 | 43.48941 | 125.51736 | 17420 ft | 434 kts | 169° |
| 2026-04-22 03:46 | 43.46994 | 125.52399 | 17743 ft | 432 kts | 179° |
| 2026-04-22 03:46 | 43.44075 | 125.52411 | 18385 ft | 414 kts | 199° |
| 2026-04-22 03:47 | 43.40568 | 125.50773 | 19297 ft | 394 kts | 217° |
| 2026-04-22 03:47 | 43.38112 | 125.49063 | 19905 ft | 395 kts | 219° |
| 2026-04-22 03:47 | 43.36500 | 125.47900 | 20410 ft | 393 kts | 219° |
| 2026-04-22 03:47 | 43.33263 | 125.45536 | 21163 ft | 399 kts | 220° |
| 2026-04-22 03:48 | 43.31638 | 125.44356 | 21631 ft | 398 kts | 219° |
| 2026-04-22 03:48 | 43.28365 | 125.41994 | 22424 ft | 401 kts | 219° |
| 2026-04-22 03:48 | 43.26708 | 125.40810 | 22850 ft | 402 kts | 219° |
| 2026-04-22 03:48 | 43.24221 | 125.39040 | 23377 ft | 405 kts | 219° |
| 2026-04-22 03:49 | 43.20876 | 125.36672 | 24082 ft | 408 kts | 219° |
| 2026-04-22 03:49 | 43.18365 | 125.34901 | 24584 ft | 411 kts | 218° |
| 2026-04-22 03:49 | 43.16652 | 125.33695 | 24901 ft | 414 kts | 218° |
| 2026-04-22 03:49 | 43.14099 | 125.31905 | 25491 ft | 412 kts | 218° |
| 2026-04-22 03:50 | 43.10692 | 125.29522 | 25592 ft | 410 kts | 218° |
| 2026-04-22 03:50 | 43.09011 | 125.28355 | 25591 ft | 407 kts | 218° |
| 2026-04-22 03:50 | 43.06485 | 125.26600 | 25595 ft | 406 kts | 218° |
| 2026-04-22 03:50 | 43.03146 | 125.24273 | 25602 ft | 407 kts | 218° |
| 2026-04-22 03:51 | 43.00617 | 125.22504 | 25599 ft | 407 kts | 218° |
| 2026-04-22 03:51 | 42.98951 | 125.21343 | 25603 ft | 406 kts | 218° |
| 2026-04-22 03:51 | 42.96384 | 125.19670 | 25609 ft | 411 kts | 214° |
| 2026-04-22 03:51 | 42.92673 | 125.18072 | 25608 ft | 429 kts | 201° |
| 2026-04-22 03:52 | 42.89670 | 125.17680 | 25613 ft | 445 kts | 192° |
| 2026-04-22 03:52 | 42.87588 | 125.17678 | 25605 ft | 446 kts | 189° |
| 2026-04-22 03:52 | 42.84504 | 125.17745 | 25597 ft | 444 kts | 191° |
| 2026-04-22 03:52 | 42.81482 | 125.17344 | 25606 ft | 428 kts | 203° |
| 2026-04-22 03:53 | 42.78728 | 125.16109 | 25605 ft | 412 kts | 214° |
| 2026-04-22 03:53 | 42.76154 | 125.14465 | 25601 ft | 407 kts | 218° |
| 2026-04-22 03:53 | 42.72828 | 125.12060 | 25595 ft | 403 kts | 219° |
| 2026-04-22 03:53 | 42.71184 | 125.10833 | 25588 ft | 401 kts | 219° |
| 2026-04-22 03:54 | 42.68743 | 125.09011 | 25599 ft | 404 kts | 220° |
| 2026-04-22 03:54 | 42.66301 | 125.07207 | 25595 ft | 403 kts | 219° |
| 2026-04-22 03:54 | 42.63830 | 125.05411 | 25592 ft | 403 kts | 219° |
| 2026-04-22 03:54 | 42.60515 | 125.03037 | 25594 ft | 405 kts | 218° |
| 2026-04-22 03:55 | 42.58851 | 125.01859 | 25591 ft | 404 kts | 218° |
| 2026-04-22 03:55 | 42.55534 | 124.99526 | 25595 ft | 404 kts | 218° |
| 2026-04-22 03:55 | 42.53044 | 124.97782 | 25592 ft | 405 kts | 218° |
| 2026-04-22 03:55 | 42.50547 | 124.96040 | 25588 ft | 404 kts | 218° |
| 2026-04-22 03:56 | 42.48889 | 124.94885 | 25586 ft | 405 kts | 218° |
| 2026-04-22 03:56 | 42.46361 | 124.93127 | 25588 ft | 404 kts | 218° |
| 2026-04-22 03:56 | 42.43887 | 124.91409 | 25579 ft | 404 kts | 218° |
| 2026-04-22 03:56 | 42.40549 | 124.89092 | 25588 ft | 405 kts | 218° |
| 2026-04-22 03:57 | 42.38855 | 124.87917 | 25588 ft | 405 kts | 218° |
| 2026-04-22 03:57 | 42.36355 | 124.86186 | 25593 ft | 405 kts | 218° |
| 2026-04-22 03:57 | 42.33859 | 124.84458 | 25597 ft | 405 kts | 218° |
| 2026-04-22 03:57 | 42.30517 | 124.82149 | 25598 ft | 404 kts | 217° |
| 2026-04-22 03:58 | 42.28011 | 124.80421 | 25592 ft | 404 kts | 217° |
| 2026-04-22 03:58 | 42.26348 | 124.79275 | 25602 ft | 403 kts | 217° |
| 2026-04-22 03:58 | 42.23855 | 124.77556 | 25611 ft | 405 kts | 218° |
| 2026-04-22 03:58 | 42.21359 | 124.75835 | 25607 ft | 403 kts | 217° |
| 2026-04-22 03:59 | 42.18023 | 124.73538 | 25608 ft | 405 kts | 217° |
| 2026-04-22 03:59 | 42.15512 | 124.71811 | 25612 ft | 405 kts | 217° |
| 2026-04-22 03:59 | 42.13837 | 124.70660 | 25609 ft | 405 kts | 217° |
| 2026-04-22 03:59 | 42.10493 | 124.68366 | 25611 ft | 405 kts | 217° |
| 2026-04-22 04:00 | 42.07997 | 124.66653 | 25608 ft | 405 kts | 217° |
| 2026-04-22 04:00 | 42.05505 | 124.64949 | 25608 ft | 403 kts | 217° |
| 2026-04-22 04:00 | 42.03817 | 124.63795 | 25615 ft | 403 kts | 217° |
| 2026-04-22 04:00 | 42.00497 | 124.61521 | 25613 ft | 406 kts | 217° |
| 2026-04-22 04:01 | 41.97957 | 124.59785 | 25613 ft | 404 kts | 217° |
| 2026-04-22 04:01 | 41.95503 | 124.58037 | 25612 ft | 403 kts | 219° |
| 2026-04-22 04:01 | 41.93037 | 124.56180 | 25612 ft | 402 kts | 220° |
| 2026-04-22 04:01 | 41.90627 | 124.54319 | 25615 ft | 400 kts | 220° |
| 2026-04-22 04:02 | 41.89042 | 124.53086 | 25615 ft | 401 kts | 220° |
| 2026-04-22 04:02 | 41.86634 | 124.51212 | 25608 ft | 402 kts | 220° |
| 2026-04-22 04:02 | 41.84186 | 124.49316 | 25608 ft | 403 kts | 220° |
| 2026-04-22 04:02 | 41.80954 | 124.46826 | 25614 ft | 403 kts | 220° |
| 2026-04-22 04:03 | 41.79339 | 124.45589 | 25609 ft | 403 kts | 220° |
| 2026-04-22 04:03 | 41.76070 | 124.43092 | 25602 ft | 402 kts | 219° |
| 2026-04-22 04:03 | 41.74455 | 124.41863 | 25606 ft | 403 kts | 219° |
| 2026-04-22 04:03 | 41.72044 | 124.40031 | 25604 ft | 402 kts | 219° |
| 2026-04-22 04:04 | 41.69587 | 124.38166 | 25605 ft | 402 kts | 219° |
| 2026-04-22 04:04 | 41.66352 | 124.35716 | 25607 ft | 402 kts | 219° |
| 2026-04-22 04:04 | 41.63915 | 124.33868 | 25607 ft | 404 kts | 218° |
| 2026-04-22 04:04 | 41.62313 | 124.32655 | 25604 ft | 405 kts | 218° |
| 2026-04-22 04:05 | 41.59032 | 124.30174 | 25602 ft | 404 kts | 218° |
| 2026-04-22 04:05 | 41.56578 | 124.28324 | 25604 ft | 404 kts | 218° |
| 2026-04-22 04:05 | 41.54972 | 124.27112 | 25602 ft | 405 kts | 218° |
| 2026-04-22 04:05 | 41.52510 | 124.25256 | 25602 ft | 404 kts | 218° |
| 2026-04-22 04:06 | 41.50058 | 124.23410 | 25605 ft | 405 kts | 218° |
| 2026-04-22 04:06 | 41.46818 | 124.20973 | 25602 ft | 403 kts | 218° |
| 2026-04-22 04:06 | 41.45193 | 124.19754 | 25603 ft | 403 kts | 218° |
| 2026-04-22 04:06 | 41.42732 | 124.17905 | 25601 ft | 404 kts | 218° |
| 2026-04-22 04:07 | 41.40304 | 124.16083 | 25597 ft | 405 kts | 218° |
| 2026-04-22 04:07 | 41.37825 | 124.14249 | 25597 ft | 405 kts | 217° |
| 2026-04-22 04:07 | 41.34538 | 124.11860 | 25596 ft | 407 kts | 217° |
| 2026-04-22 04:07 | 41.32872 | 124.10658 | 25594 ft | 406 kts | 217° |
| 2026-04-22 04:08 | 41.29577 | 124.08284 | 25593 ft | 407 kts | 217° |
| 2026-04-22 04:08 | 41.27081 | 124.06488 | 25594 ft | 407 kts | 217° |
| 2026-04-22 04:08 | 41.25441 | 124.05306 | 25593 ft | 407 kts | 217° |
| 2026-04-22 04:08 | 41.22113 | 124.02910 | 25592 ft | 408 kts | 217° |
| 2026-04-22 04:09 | 41.20444 | 124.01708 | 25592 ft | 408 kts | 217° |
| 2026-04-22 04:09 | 41.17153 | 123.99338 | 25595 ft | 407 kts | 217° |
| 2026-04-22 04:09 | 41.15490 | 123.98141 | 25594 ft | 405 kts | 217° |
| 2026-04-22 04:09 | 41.13002 | 123.96350 | 25597 ft | 407 kts | 217° |
| 2026-04-22 04:10 | 41.10526 | 123.94569 | 25594 ft | 406 kts | 217° |
| 2026-04-22 04:10 | 41.07224 | 123.92196 | 25589 ft | 407 kts | 216° |
| 2026-04-22 04:10 | 41.04725 | 123.90400 | 25591 ft | 408 kts | 216° |
| 2026-04-22 04:10 | 41.03067 | 123.89211 | 25591 ft | 407 kts | 217° |
| 2026-04-22 04:11 | 40.99779 | 123.86857 | 25587 ft | 404 kts | 216° |
| 2026-04-22 04:11 | 40.98109 | 123.85662 | 25589 ft | 405 kts | 217° |
| 2026-04-22 04:11 | 40.94793 | 123.83287 | 25575 ft | 408 kts | 216° |
| 2026-04-22 04:11 | 40.92312 | 123.81514 | 25580 ft | 408 kts | 216° |
| 2026-04-22 04:12 | 40.90653 | 123.80329 | 25587 ft | 407 kts | 216° |
| 2026-04-22 04:12 | 40.87336 | 123.77962 | 25581 ft | 407 kts | 216° |
| 2026-04-22 04:12 | 40.85660 | 123.76767 | 25586 ft | 407 kts | 216° |
| 2026-04-22 04:12 | 40.83165 | 123.74990 | 25593 ft | 406 kts | 216° |
| 2026-04-22 04:13 | 40.80695 | 123.73211 | 25589 ft | 405 kts | 217° |
| 2026-04-22 04:13 | 40.78229 | 123.71404 | 25587 ft | 406 kts | 217° |
| 2026-04-22 04:13 | 40.75773 | 123.69591 | 25583 ft | 404 kts | 217° |
| 2026-04-22 04:13 | 40.73324 | 123.67782 | 25590 ft | 405 kts | 217° |
| 2026-04-22 04:14 | 40.70053 | 123.65368 | 25592 ft | 406 kts | 217° |
| 2026-04-22 04:14 | 40.68420 | 123.64165 | 25589 ft | 406 kts | 217° |
| 2026-04-22 04:14 | 40.65962 | 123.62357 | 25591 ft | 404 kts | 217° |
| 2026-04-22 04:14 | 40.62714 | 123.59974 | 25603 ft | 405 kts | 217° |
| 2026-04-22 04:15 | 40.61050 | 123.58755 | 25603 ft | 405 kts | 217° |
| 2026-04-22 04:15 | 40.58601 | 123.56963 | 25598 ft | 405 kts | 217° |
| 2026-04-22 04:15 | 40.56146 | 123.55166 | 25597 ft | 405 kts | 217° |
| 2026-04-22 04:15 | 40.53695 | 123.53374 | 25593 ft | 405 kts | 217° |
| 2026-04-22 04:16 | 40.51245 | 123.51585 | 25599 ft | 404 kts | 217° |
| 2026-04-22 04:16 | 40.46320 | 123.47992 | 25595 ft | 405 kts | 217° |
| 2026-04-22 04:16 | 40.43864 | 123.46202 | 25600 ft | 405 kts | 217° |
| 2026-04-22 04:17 | 40.41416 | 123.44421 | 25594 ft | 403 kts | 217° |
| 2026-04-22 04:17 | 40.38159 | 123.42054 | 25588 ft | 403 kts | 217° |
| 2026-04-22 04:17 | 40.36528 | 123.40870 | 25593 ft | 402 kts | 217° |
| 2026-04-22 04:17 | 40.34046 | 123.39066 | 25596 ft | 404 kts | 217° |
| 2026-04-22 04:18 | 40.31594 | 123.37287 | 25587 ft | 403 kts | 217° |
| 2026-04-22 04:18 | 40.29160 | 123.35522 | 25590 ft | 404 kts | 217° |
| 2026-04-22 04:18 | 40.26704 | 123.33745 | 25581 ft | 402 kts | 216° |
| 2026-04-22 04:18 | 40.24270 | 123.31984 | 25582 ft | 402 kts | 216° |
| 2026-04-22 04:19 | 40.21812 | 123.30205 | 25578 ft | 405 kts | 216° |
| 2026-04-22 04:19 | 40.19358 | 123.28432 | 25584 ft | 404 kts | 216° |
| 2026-04-22 04:19 | 40.16886 | 123.26648 | 25585 ft | 403 kts | 216° |
| 2026-04-22 04:19 | 40.14426 | 123.24876 | 25579 ft | 402 kts | 216° |
| 2026-04-22 04:20 | 40.11162 | 123.22523 | 25576 ft | 402 kts | 216° |
| 2026-04-22 04:20 | 40.08726 | 123.20766 | 25578 ft | 405 kts | 216° |
| 2026-04-22 04:20 | 40.07074 | 123.19577 | 25573 ft | 404 kts | 216° |
| 2026-04-22 04:20 | 40.04592 | 123.17790 | 25577 ft | 404 kts | 216° |
| 2026-04-22 04:21 | 40.01342 | 123.15443 | 25567 ft | 403 kts | 216° |
| 2026-04-22 04:21 | 39.99679 | 123.14233 | 25578 ft | 405 kts | 216° |
| 2026-04-22 04:21 | 39.97218 | 123.12442 | 25578 ft | 402 kts | 216° |
| 2026-04-22 04:21 | 39.94805 | 123.10686 | 25574 ft | 401 kts | 216° |
| 2026-04-22 04:22 | 39.92369 | 123.08912 | 25570 ft | 402 kts | 216° |
| 2026-04-22 04:22 | 39.89913 | 123.07124 | 25572 ft | 403 kts | 217° |
| 2026-04-22 04:22 | 39.87483 | 123.05360 | 25571 ft | 401 kts | 217° |
| 2026-04-22 04:22 | 39.85027 | 123.03577 | 25559 ft | 404 kts | 217° |
| 2026-04-22 04:23 | 39.81744 | 123.01194 | 25575 ft | 402 kts | 217° |
| 2026-04-22 04:23 | 39.80121 | 123.00018 | 25577 ft | 401 kts | 217° |
| 2026-04-22 04:23 | 39.77698 | 122.98264 | 25573 ft | 403 kts | 217° |
| 2026-04-22 04:23 | 39.75254 | 122.96497 | 25586 ft | 401 kts | 216° |
| 2026-04-22 04:24 | 39.72834 | 122.94750 | 25572 ft | 399 kts | 216° |
| 2026-04-22 04:24 | 39.70410 | 122.93005 | 25573 ft | 398 kts | 217° |
| 2026-04-22 04:24 | 39.67965 | 122.91241 | 25586 ft | 403 kts | 217° |
| 2026-04-22 04:24 | 39.65495 | 122.89462 | 25573 ft | 402 kts | 217° |
| 2026-04-22 04:25 | 39.63070 | 122.87721 | 25586 ft | 400 kts | 217° |
| 2026-04-22 04:25 | 39.60660 | 122.85989 | 25584 ft | 401 kts | 217° |
| 2026-04-22 04:25 | 39.58222 | 122.84237 | 25586 ft | 401 kts | 217° |
| 2026-04-22 04:25 | 39.55762 | 122.82466 | 25585 ft | 401 kts | 217° |
| 2026-04-22 04:26 | 39.53329 | 122.80722 | 25584 ft | 399 kts | 217° |
| 2026-04-22 04:26 | 39.50913 | 122.78989 | 25580 ft | 399 kts | 217° |
| 2026-04-22 04:26 | 39.48479 | 122.77246 | 25601 ft | 397 kts | 217° |
| 2026-04-22 04:26 | 39.46072 | 122.75520 | 25588 ft | 400 kts | 217° |
| 2026-04-22 04:27 | 39.43625 | 122.73771 | 25585 ft | 398 kts | 217° |
| 2026-04-22 04:27 | 39.41210 | 122.72051 | 25596 ft | 395 kts | 217° |
| 2026-04-22 04:27 | 39.38814 | 122.70342 | 25591 ft | 400 kts | 217° |
| 2026-04-22 04:27 | 39.36370 | 122.68595 | 25598 ft | 399 kts | 217° |
| 2026-04-22 04:28 | 39.33129 | 122.66286 | 25600 ft | 400 kts | 217° |
| 2026-04-22 04:28 | 39.31512 | 122.65135 | 25600 ft | 398 kts | 217° |
| 2026-04-22 04:28 | 39.29089 | 122.63416 | 25596 ft | 397 kts | 217° |
| 2026-04-22 04:28 | 39.26675 | 122.61700 | 25600 ft | 395 kts | 217° |
| 2026-04-22 04:29 | 39.24309 | 122.59948 | 25602 ft | 393 kts | 219° |
| 2026-04-22 04:29 | 39.21939 | 122.58071 | 25603 ft | 398 kts | 220° |
| 2026-04-22 04:29 | 39.19630 | 122.56197 | 25590 ft | 392 kts | 220° |
| 2026-04-22 04:29 | 39.17326 | 122.54322 | 25595 ft | 390 kts | 220° |
| 2026-04-22 04:30 | 39.14255 | 122.51820 | 25594 ft | 396 kts | 220° |
| 2026-04-22 04:30 | 39.11912 | 122.49927 | 25594 ft | 396 kts | 220° |
| 2026-04-22 04:30 | 39.10359 | 122.48677 | 25588 ft | 396 kts | 220° |
| 2026-04-22 04:30 | 39.08023 | 122.46806 | 25592 ft | 393 kts | 220° |
| 2026-04-22 04:31 | 39.05700 | 122.44952 | 25597 ft | 392 kts | 220° |
| 2026-04-22 04:31 | 39.03401 | 122.43121 | 25597 ft | 390 kts | 220° |
| 2026-04-22 04:31 | 39.01113 | 122.41299 | 25597 ft | 393 kts | 220° |
| 2026-04-22 04:31 | 38.98788 | 122.39449 | 25596 ft | 391 kts | 220° |
| 2026-04-22 04:32 | 38.96479 | 122.37615 | 25598 ft | 390 kts | 220° |
| 2026-04-22 04:32 | 38.94165 | 122.35777 | 25600 ft | 387 kts | 220° |
| 2026-04-22 04:32 | 38.91867 | 122.33955 | 25603 ft | 391 kts | 220° |
| 2026-04-22 04:32 | 38.89554 | 122.32119 | 25605 ft | 391 kts | 219° |
| 2026-04-22 04:33 | 38.87228 | 122.30279 | 25599 ft | 389 kts | 219° |
| 2026-04-22 04:33 | 38.84966 | 122.28493 | 25599 ft | 386 kts | 220° |
| 2026-04-22 04:33 | 38.82677 | 122.26681 | 25613 ft | 388 kts | 220° |
| 2026-04-22 04:33 | 38.79567 | 122.24218 | 25605 ft | 391 kts | 220° |
| 2026-04-22 04:34 | 38.78054 | 122.23024 | 25608 ft | 391 kts | 219° |
| 2026-04-22 04:34 | 38.75734 | 122.21193 | 25605 ft | 386 kts | 220° |
| 2026-04-22 04:34 | 38.72853 | 122.18534 | 25611 ft | 380 kts | 229° |
| 2026-04-22 04:34 | 38.71601 | 122.16996 | 25622 ft | 376 kts | 234° |
| 2026-04-22 04:35 | 38.69968 | 122.14388 | 25614 ft | 368 kts | 241° |
| 2026-04-22 04:35 | 38.68676 | 122.11643 | 25621 ft | 363 kts | 247° |
| 2026-04-22 04:35 | 38.67304 | 122.07732 | 25612 ft | 360 kts | 253° |
| 2026-04-22 04:35 | 38.66764 | 122.05736 | 25619 ft | 359 kts | 256° |
| 2026-04-22 04:36 | 38.66050 | 122.02663 | 25612 ft | 356 kts | 257° |
| 2026-04-22 04:36 | 38.65403 | 121.99622 | 25614 ft | 360 kts | 258° |
| 2026-04-22 04:36 | 38.64756 | 121.96529 | 25612 ft | 361 kts | 258° |
| 2026-04-22 04:36 | 38.64106 | 121.93467 | 25613 ft | 358 kts | 258° |
| 2026-04-22 04:37 | 38.63444 | 121.90401 | 25606 ft | 359 kts | 258° |
| 2026-04-22 04:37 | 38.62771 | 121.87312 | 25620 ft | 360 kts | 258° |
| 2026-04-22 04:37 | 38.61874 | 121.83258 | 25617 ft | 355 kts | 257° |
| 2026-04-22 04:37 | 38.61424 | 121.81239 | 25616 ft | 358 kts | 257° |
| 2026-04-22 04:38 | 38.60734 | 121.78146 | 25617 ft | 359 kts | 257° |
| 2026-04-22 04:38 | 38.60055 | 121.75124 | 25619 ft | 355 kts | 257° |
| 2026-04-22 04:38 | 38.59369 | 121.72063 | 25621 ft | 357 kts | 257° |
| 2026-04-22 04:38 | 38.58690 | 121.69056 | 25620 ft | 357 kts | 258° |
| 2026-04-22 04:39 | 38.58003 | 121.66009 | 25621 ft | 358 kts | 257° |
| 2026-04-22 04:39 | 38.57309 | 121.62935 | 25617 ft | 359 kts | 257° |
| 2026-04-22 04:39 | 38.56624 | 121.59898 | 25622 ft | 359 kts | 257° |
| 2026-04-22 04:39 | 38.55931 | 121.56837 | 25617 ft | 357 kts | 257° |
| 2026-04-22 04:40 | 38.55242 | 121.53809 | 25629 ft | 354 kts | 257° |
| 2026-04-22 04:40 | 38.54554 | 121.50787 | 25625 ft | 357 kts | 258° |
| 2026-04-22 04:40 | 38.53863 | 121.47749 | 25623 ft | 359 kts | 257° |
| 2026-04-22 04:40 | 38.53167 | 121.44690 | 25622 ft | 360 kts | 257° |
| 2026-04-22 04:41 | 38.52470 | 121.41625 | 25624 ft | 357 kts | 257° |
| 2026-04-22 04:41 | 38.51543 | 121.37553 | 25624 ft | 359 kts | 256° |
| 2026-04-22 04:41 | 38.51082 | 121.35541 | 25630 ft | 360 kts | 257° |
| 2026-04-22 04:41 | 38.50380 | 121.32483 | 25623 ft | 358 kts | 256° |
| 2026-04-22 04:42 | 38.49678 | 121.29424 | 25622 ft | 358 kts | 256° |
| 2026-04-22 04:42 | 38.48984 | 121.26400 | 25627 ft | 358 kts | 257° |
| 2026-04-22 04:42 | 38.48288 | 121.23367 | 25624 ft | 359 kts | 256° |
| 2026-04-22 04:42 | 38.47582 | 121.20296 | 25626 ft | 356 kts | 256° |
| 2026-04-22 04:43 | 38.46848 | 121.17297 | 25619 ft | 356 kts | 255° |
| 2026-04-22 04:43 | 38.45935 | 121.14342 | 25627 ft | 362 kts | 249° |
| 2026-04-22 04:43 | 38.44759 | 121.11477 | 25634 ft | 366 kts | 244° |
| 2026-04-22 04:43 | 38.43010 | 121.07839 | 25621 ft | 363 kts | 242° |
| 2026-04-22 04:44 | 38.42091 | 121.06014 | 25629 ft | 365 kts | 242° |
| 2026-04-22 04:44 | 38.40714 | 121.03291 | 25628 ft | 367 kts | 242° |
| 2026-04-22 04:44 | 38.39330 | 121.00548 | 25628 ft | 367 kts | 242° |
| 2026-04-22 04:44 | 38.37972 | 120.97845 | 25630 ft | 364 kts | 243° |
| 2026-04-22 04:45 | 38.36605 | 120.95106 | 25626 ft | 367 kts | 242° |
| 2026-04-22 04:45 | 38.35241 | 120.92365 | 25624 ft | 366 kts | 243° |
| 2026-04-22 04:45 | 38.33434 | 120.88731 | 25636 ft | 364 kts | 243° |
| 2026-04-22 04:45 | 38.32547 | 120.86942 | 25631 ft | 365 kts | 243° |
| 2026-04-22 04:46 | 38.31187 | 120.84200 | 25634 ft | 367 kts | 243° |
| 2026-04-22 04:46 | 38.29828 | 120.81464 | 25628 ft | 364 kts | 243° |
| 2026-04-22 04:46 | 38.28019 | 120.77821 | 25630 ft | 365 kts | 242° |
| 2026-04-22 04:46 | 38.27102 | 120.76026 | 25631 ft | 365 kts | 241° |
| 2026-04-22 04:47 | 38.24966 | 120.72629 | 25632 ft | 373 kts | 231° |
| 2026-04-22 04:47 | 38.23644 | 120.71184 | 25631 ft | 381 kts | 224° |
| 2026-04-22 04:47 | 38.21396 | 120.69370 | 25633 ft | 386 kts | 217° |
| 2026-04-22 04:47 | 38.19017 | 120.67798 | 25630 ft | 386 kts | 214° |
| 2026-04-22 04:48 | 38.16566 | 120.66296 | 25633 ft | 391 kts | 214° |
| 2026-04-22 04:48 | 38.13311 | 120.64339 | 25629 ft | 391 kts | 214° |
| 2026-04-22 04:48 | 38.11646 | 120.63336 | 25636 ft | 391 kts | 214° |
| 2026-04-22 04:48 | 38.08376 | 120.61350 | 25637 ft | 392 kts | 214° |
| 2026-04-22 04:49 | 38.06757 | 120.60359 | 25628 ft | 389 kts | 214° |
| 2026-04-22 04:49 | 38.03461 | 120.58513 | 25633 ft | 392 kts | 210° |
| 2026-04-22 04:49 | 38.01714 | 120.57772 | 25638 ft | 399 kts | 205° |
| 2026-04-22 04:49 | 37.98963 | 120.57027 | 25635 ft | 410 kts | 198° |
| 2026-04-22 04:50 | 37.96124 | 120.56615 | 25632 ft | 411 kts | 194° |
| 2026-04-22 04:50 | 37.93291 | 120.56371 | 25632 ft | 415 kts | 193° |
| 2026-04-22 04:50 | 37.90380 | 120.56184 | 25632 ft | 415 kts | 192° |
| 2026-04-22 04:50 | 37.87508 | 120.56014 | 25635 ft | 418 kts | 192° |
| 2026-04-22 04:51 | 37.84580 | 120.55839 | 25632 ft | 414 kts | 192° |
| 2026-04-22 04:51 | 37.81739 | 120.55638 | 25636 ft | 410 kts | 193° |
| 2026-04-22 04:51 | 37.78919 | 120.55193 | 25630 ft | 403 kts | 202° |
| 2026-04-22 04:51 | 37.75474 | 120.53652 | 25635 ft | 389 kts | 215° |
| 2026-04-22 04:52 | 37.73913 | 120.52537 | 25626 ft | 381 kts | 220° |
| 2026-04-22 04:52 | 37.71768 | 120.50584 | 25623 ft | 377 kts | 226° |
| 2026-04-22 04:52 | 37.69815 | 120.48418 | 25630 ft | 378 kts | 231° |
| 2026-04-22 04:52 | 37.67516 | 120.45158 | 25624 ft | 365 kts | 240° |
| 2026-04-22 04:53 | 37.66612 | 120.43369 | 25629 ft | 361 kts | 245° |
| 2026-04-22 04:53 | 37.65238 | 120.39585 | 25625 ft | 359 kts | 253° |
| 2026-04-22 04:53 | 37.64493 | 120.36579 | 25626 ft | 357 kts | 258° |
| 2026-04-22 04:53 | 37.64122 | 120.34573 | 25631 ft | 356 kts | 260° |
| 2026-04-22 04:54 | 37.63740 | 120.31483 | 25632 ft | 355 kts | 264° |
| 2026-04-22 04:54 | 37.63499 | 120.28402 | 25625 ft | 355 kts | 265° |
| 2026-04-22 04:54 | 37.63316 | 120.25287 | 25631 ft | 357 kts | 266° |
| 2026-04-22 04:54 | 37.63141 | 120.22179 | 25632 ft | 354 kts | 267° |
| 2026-04-22 04:55 | 37.62956 | 120.19098 | 25632 ft | 357 kts | 266° |
| 2026-04-22 04:55 | 37.62756 | 120.15963 | 25633 ft | 358 kts | 266° |
| 2026-04-22 04:55 | 37.62547 | 120.12852 | 25633 ft | 355 kts | 266° |
| 2026-04-22 04:55 | 37.62333 | 120.09775 | 25638 ft | 355 kts | 265° |
| 2026-04-22 04:56 | 37.62111 | 120.06654 | 25632 ft | 356 kts | 266° |
| 2026-04-22 04:56 | 37.61887 | 120.03580 | 25631 ft | 355 kts | 265° |
| 2026-04-22 04:56 | 37.61659 | 120.00453 | 25629 ft | 357 kts | 265° |
| 2026-04-22 04:56 | 37.61431 | 119.97360 | 25629 ft | 356 kts | 266° |
| 2026-04-22 04:57 | 37.61202 | 119.94270 | 25631 ft | 356 kts | 266° |
| 2026-04-22 04:57 | 37.60971 | 119.91150 | 25622 ft | 356 kts | 266° |
| 2026-04-22 04:57 | 37.60741 | 119.88032 | 25614 ft | 360 kts | 265° |
| 2026-04-22 04:57 | 37.60509 | 119.84919 | 25619 ft | 357 kts | 266° |
| 2026-04-22 04:58 | 37.60278 | 119.81831 | 25623 ft | 355 kts | 265° |
| 2026-04-22 04:58 | 37.60043 | 119.78713 | 25617 ft | 356 kts | 265° |
| 2026-04-22 04:58 | 37.59810 | 119.75634 | 25614 ft | 357 kts | 266° |
| 2026-04-22 04:58 | 37.59573 | 119.72517 | 25614 ft | 356 kts | 266° |
| 2026-04-22 04:59 | 37.59338 | 119.69402 | 25617 ft | 357 kts | 265° |
| 2026-04-22 04:59 | 37.59104 | 119.66296 | 25612 ft | 358 kts | 265° |
| 2026-04-22 04:59 | 37.58882 | 119.63169 | 25609 ft | 358 kts | 266° |
| 2026-04-22 04:59 | 37.58670 | 119.60043 | 25611 ft | 357 kts | 265° |
| 2026-04-22 05:00 | 37.58468 | 119.56941 | 25603 ft | 356 kts | 266° |
| 2026-04-22 05:00 | 37.58267 | 119.53818 | 25604 ft | 360 kts | 265° |
| 2026-04-22 05:00 | 37.58061 | 119.50686 | 25613 ft | 359 kts | 266° |
| 2026-04-22 05:00 | 37.57847 | 119.47558 | 25601 ft | 355 kts | 266° |
| 2026-04-22 05:01 | 37.57633 | 119.44492 | 25608 ft | 357 kts | 266° |
| 2026-04-22 05:01 | 37.57411 | 119.41331 | 25607 ft | 360 kts | 265° |
| 2026-04-22 05:01 | 37.57191 | 119.38213 | 25603 ft | 358 kts | 266° |
| 2026-04-22 05:01 | 37.56970 | 119.35112 | 25604 ft | 356 kts | 266° |
| 2026-04-22 05:02 | 37.56747 | 119.31986 | 25604 ft | 360 kts | 265° |
| 2026-04-22 05:02 | 37.56524 | 119.28867 | 25604 ft | 358 kts | 265° |
| 2026-04-22 05:02 | 37.56298 | 119.25722 | 25601 ft | 357 kts | 265° |
| 2026-04-22 05:02 | 37.56074 | 119.22613 | 25605 ft | 358 kts | 265° |
| 2026-04-22 05:03 | 37.55847 | 119.19481 | 25598 ft | 361 kts | 265° |
| 2026-04-22 05:03 | 37.55623 | 119.16376 | 25606 ft | 359 kts | 265° |
| 2026-04-22 05:03 | 37.55399 | 119.13258 | 25603 ft | 357 kts | 265° |
| 2026-04-22 05:03 | 37.55175 | 119.10166 | 25604 ft | 358 kts | 265° |
| 2026-04-22 05:04 | 37.54945 | 119.07027 | 25606 ft | 358 kts | 265° |
| 2026-04-22 05:04 | 37.54717 | 119.03915 | 25606 ft | 360 kts | 265° |
| 2026-04-22 05:04 | 37.54489 | 119.00806 | 25597 ft | 360 kts | 265° |
| 2026-04-22 05:04 | 37.54253 | 118.97632 | 25617 ft | 360 kts | 265° |
| 2026-04-22 05:05 | 37.54019 | 118.94493 | 25610 ft | 358 kts | 265° |
| 2026-04-22 05:05 | 37.53788 | 118.91406 | 25609 ft | 357 kts | 265° |
| 2026-04-22 05:05 | 37.53556 | 118.88278 | 25602 ft | 360 kts | 264° |
| 2026-04-22 05:05 | 37.53324 | 118.85181 | 25602 ft | 361 kts | 265° |
| 2026-04-22 05:06 | 37.53086 | 118.82045 | 25614 ft | 358 kts | 265° |
| 2026-04-22 05:06 | 37.52848 | 118.78915 | 25608 ft | 358 kts | 265° |
| 2026-04-22 05:06 | 37.52563 | 118.75822 | 25601 ft | 362 kts | 263° |
| 2026-04-22 05:06 | 37.52194 | 118.72707 | 25602 ft | 360 kts | 262° |
| 2026-04-22 05:07 | 37.51788 | 118.69603 | 25610 ft | 359 kts | 261° |
| 2026-04-22 05:07 | 37.51374 | 118.66488 | 25608 ft | 359 kts | 262° |
| 2026-04-22 05:07 | 37.50972 | 118.63416 | 25600 ft | 358 kts | 262° |
| 2026-04-22 05:07 | 37.50570 | 118.60309 | 25603 ft | 362 kts | 262° |
| 2026-04-22 05:08 | 37.50168 | 118.57174 | 25599 ft | 361 kts | 262° |
| 2026-04-22 05:08 | 37.49775 | 118.54083 | 25596 ft | 362 kts | 262° |
| 2026-04-22 05:08 | 37.49382 | 118.50981 | 25597 ft | 358 kts | 262° |
| 2026-04-22 05:08 | 37.48989 | 118.47871 | 25600 ft | 361 kts | 262° |
| 2026-04-22 05:09 | 37.48595 | 118.44755 | 25598 ft | 361 kts | 262° |
| 2026-04-22 05:09 | 37.48199 | 118.41621 | 25568 ft | 362 kts | 262° |
| 2026-04-22 05:09 | 37.47804 | 118.38498 | 25322 ft | 361 kts | 262° |
| 2026-04-22 05:09 | 37.47411 | 118.35400 | 25071 ft | 364 kts | 262° |
| 2026-04-22 05:10 | 37.47012 | 118.32260 | 24804 ft | 361 kts | 262° |
| 2026-04-22 05:10 | 37.46616 | 118.29157 | 24557 ft | 361 kts | 262° |
| 2026-04-22 05:10 | 37.46219 | 118.26047 | 24312 ft | 360 kts | 262° |
| 2026-04-22 05:10 | 37.45823 | 118.22954 | 24057 ft | 359 kts | 262° |
| 2026-04-22 05:11 | 37.45428 | 118.19851 | 23800 ft | 361 kts | 262° |
| 2026-04-22 05:11 | 37.45044 | 118.16768 | 23549 ft | 359 kts | 262° |
| 2026-04-22 05:11 | 37.44662 | 118.13693 | 23293 ft | 355 kts | 262° |
| 2026-04-22 05:11 | 37.44278 | 118.10596 | 23039 ft | 360 kts | 262° |
| 2026-04-22 05:12 | 37.43892 | 118.07487 | 22798 ft | 361 kts | 262° |
| 2026-04-22 05:12 | 37.43505 | 118.04391 | 22551 ft | 356 kts | 263° |
| 2026-04-22 05:12 | 37.43130 | 118.01372 | 22292 ft | 345 kts | 263° |
| 2026-04-22 05:12 | 37.42763 | 117.98433 | 22040 ft | 339 kts | 263° |
| 2026-04-22 05:13 | 37.42397 | 117.95503 | 21799 ft | 339 kts | 262° |
| 2026-04-22 05:13 | 37.42031 | 117.92572 | 21557 ft | 341 kts | 263° |
| 2026-04-22 05:13 | 37.41661 | 117.89629 | 21306 ft | 342 kts | 263° |
| 2026-04-22 05:13 | 37.41288 | 117.86681 | 21060 ft | 341 kts | 262° |
| 2026-04-22 05:14 | 37.40916 | 117.83761 | 20810 ft | 342 kts | 262° |
| 2026-04-22 05:14 | 37.40543 | 117.80823 | 20562 ft | 339 kts | 263° |
| 2026-04-22 05:14 | 37.40173 | 117.77913 | 20312 ft | 338 kts | 263° |
| 2026-04-22 05:14 | 37.39801 | 117.74984 | 20065 ft | 339 kts | 263° |
| 2026-04-22 05:15 | 37.39432 | 117.72087 | 19811 ft | 341 kts | 263° |
| 2026-04-22 05:15 | 37.39056 | 117.69156 | 19571 ft | 340 kts | 263° |
| 2026-04-22 05:15 | 37.38681 | 117.66238 | 19331 ft | 341 kts | 263° |
| 2026-04-22 05:15 | 37.38301 | 117.63277 | 19083 ft | 340 kts | 263° |
| 2026-04-22 05:16 | 37.37925 | 117.60352 | 18830 ft | 340 kts | 263° |
| 2026-04-22 05:16 | 37.37549 | 117.57443 | 18580 ft | 337 kts | 263° |
| 2026-04-22 05:16 | 37.37177 | 117.54552 | 18343 ft | 340 kts | 263° |
| 2026-04-22 05:16 | 37.36794 | 117.51619 | 18098 ft | 340 kts | 262° |
| 2026-04-22 05:17 | 37.36281 | 117.48724 | 17853 ft | 340 kts | 258° |
| 2026-04-22 05:17 | 37.35607 | 117.45877 | 17602 ft | 341 kts | 251° |
| 2026-04-22 05:17 | 37.34344 | 117.43366 | 17358 ft | 350 kts | 231° |
| 2026-04-22 05:17 | 37.32363 | 117.41528 | 17130 ft | 359 kts | 211° |
| 2026-04-22 05:18 | 37.27433 | 117.40017 | 16658 ft | 368 kts | 192° |
| 2026-04-22 05:18 | 37.24928 | 117.39542 | 16402 ft | 365 kts | 192° |
| 2026-04-22 05:18 | 37.22441 | 117.39056 | 16161 ft | 360 kts | 193° |
| 2026-04-22 05:19 | 37.19989 | 117.38567 | 15923 ft | 351 kts | 193° |
| 2026-04-22 05:19 | 37.17617 | 117.38088 | 15682 ft | 342 kts | 192° |
| 2026-04-22 05:19 | 37.15290 | 117.37617 | 15428 ft | 334 kts | 192° |
| 2026-04-22 05:19 | 37.13000 | 117.37163 | 15054 ft | 331 kts | 191° |
| 2026-04-22 05:20 | 37.10714 | 117.36858 | 14599 ft | 333 kts | 185° |
| 2026-04-22 05:20 | 37.08407 | 117.36771 | 14119 ft | 334 kts | 181° |
| 2026-04-22 05:20 | 37.06076 | 117.36790 | 13634 ft | 335 kts | 179° |
| 2026-04-22 05:20 | 37.03751 | 117.36834 | 13138 ft | 336 kts | 179° |
| 2026-04-22 05:21 | 37.01418 | 117.36867 | 12650 ft | 336 kts | 179° |
| 2026-04-22 05:21 | 36.99106 | 117.36884 | 12362 ft | 330 kts | 179° |
| 2026-04-22 05:21 | 36.96822 | 117.36888 | 12225 ft | 318 kts | 179° |
| 2026-04-22 05:21 | 36.94665 | 117.36885 | 12114 ft | 307 kts | 179° |
| 2026-04-22 05:22 | 36.92529 | 117.36880 | 11830 ft | 307 kts | 179° |
| 2026-04-22 05:22 | 36.90390 | 117.36875 | 11427 ft | 307 kts | 178° |
| 2026-04-22 05:22 | 36.88260 | 117.36872 | 11191 ft | 300 kts | 178° |
| 2026-04-22 05:22 | 36.86174 | 117.36868 | 11077 ft | 300 kts | 178° |
| 2026-04-22 05:23 | 36.84078 | 117.36866 | 10767 ft | 304 kts | 178° |
| 2026-04-22 05:23 | 36.81964 | 117.36863 | 10405 ft | 302 kts | 178° |
| 2026-04-22 05:23 | 36.79859 | 117.36858 | 10042 ft | 301 kts | 178° |
| 2026-04-22 05:23 | 36.77791 | 117.36850 | 9682 ft | 300 kts | 177° |
| 2026-04-22 05:24 | 36.75689 | 117.36841 | 9324 ft | 298 kts | 177° |
| 2026-04-22 05:24 | 36.73643 | 117.36833 | 8973 ft | 297 kts | 177° |
| 2026-04-22 05:24 | 36.71577 | 117.36827 | 8615 ft | 296 kts | 177° |
| 2026-04-22 05:24 | 36.69529 | 117.36820 | 8261 ft | 294 kts | 176° |
| 2026-04-22 05:25 | 36.67471 | 117.36813 | 7904 ft | 293 kts | 177° |
| 2026-04-22 05:25 | 36.65455 | 117.36807 | 7552 ft | 291 kts | 176° |
| 2026-04-22 05:25 | 36.63422 | 117.36802 | 7181 ft | 291 kts | 176° |
| 2026-04-22 05:25 | 36.61396 | 117.36801 | 6840 ft | 288 kts | 176° |
| 2026-04-22 05:26 | 36.59428 | 117.36786 | 6608 ft | 283 kts | 179° |
| 2026-04-22 05:26 | 36.57475 | 117.36463 | 6356 ft | 282 kts | 194° |
| 2026-04-22 05:26 | 36.55798 | 117.35256 | 6110 ft | 282 kts | 226° |
| 2026-04-22 05:26 | 36.54854 | 117.33175 | 5871 ft | 276 kts | 258° |
| 2026-04-22 05:27 | 36.54726 | 117.30079 | 5554 ft | 266 kts | 274° |
| 2026-04-22 05:27 | 36.54773 | 117.28552 | 5390 ft | 264 kts | 274° |
| 2026-04-22 05:27 | 36.54847 | 117.26321 | 5168 ft | 256 kts | 277° |
| 2026-04-22 05:27 | 36.55185 | 117.24187 | 4909 ft | 247 kts | 294° |
| 2026-04-22 05:28 | 36.56150 | 117.22531 | 4653 ft | 232 kts | 327° |
| 2026-04-22 05:28 | 36.57575 | 117.21784 | 4405 ft | 218 kts | 354° |
| 2026-04-22 05:28 | 36.59069 | 117.21634 | 4155 ft | 212 kts | 3° |
| 2026-04-22 05:28 | 36.60527 | 117.21613 | 3928 ft | 207 kts | 3° |
| 2026-04-22 05:29 | 36.61941 | 117.21602 | 3899 ft | 203 kts | 4° |
| 2026-04-22 05:29 | 36.63370 | 117.21597 | 3902 ft | 205 kts | 3° |
| 2026-04-22 05:29 | 36.64768 | 117.21580 | 3851 ft | 194 kts | 3° |
| 2026-04-22 05:29 | 36.66108 | 117.21586 | 3613 ft | 192 kts | 5° |
| 2026-04-22 05:30 | 36.67424 | 117.21597 | 3360 ft | 190 kts | 4° |
| 2026-04-22 05:30 | 36.68742 | 117.21590 | 3156 ft | 184 kts | 4° |
| 2026-04-22 05:30 | 36.70036 | 117.21590 | 2826 ft | 185 kts | 4° |
| 2026-04-22 05:30 | 36.71301 | 117.21600 | 2589 ft | 180 kts | 4° |
| 2026-04-22 05:31 | 36.72499 | 117.21588 | 2414 ft | 162 kts | 4° |
| 2026-04-22 05:31 | 36.73611 | 117.21591 | 2102 ft | 154 kts | 5° |
| 2026-04-22 05:31 | 36.74652 | 117.21601 | 1945 ft | 147 kts | 5° |
| 2026-04-22 05:31 | 36.75684 | 117.21590 | 1795 ft | 151 kts | 4° |
| 2026-04-22 05:32 | 36.76726 | 117.21580 | 1531 ft | 148 kts | 4° |
| 2026-04-22 05:32 | 36.77761 | 117.21574 | 1294 ft | 145 kts | 4° |
| 2026-04-22 05:32 | 36.78778 | 117.21571 | 1090 ft | 146 kts | 3° |
| 2026-04-22 05:32 | 36.79803 | 117.21574 | 889 ft | 148 kts | 5° |
| 2026-04-22 05:33 | 36.80824 | 117.21592 | 731 ft | 147 kts | 4° |
| 2026-04-22 05:33 | 36.81861 | 117.21581 | 535 ft | 148 kts | 3° |
| 2026-04-22 05:33 | 36.82888 | 117.21581 | 347 ft | 150 kts | 4° |
| 2026-04-22 05:33 | 36.83930 | 117.21590 | 165 ft | 149 kts | 4° |
| 2026-04-22 05:34 | 36.84944 | 117.21599 | 83 ft | 128 kts | 4° |
| 2026-04-22 05:34 | 36.85563 | 117.21600 | 83 ft | 57 kts | 1° |
| 2026-04-22 05:34 | 36.85827 | 117.21590 | 83 ft | 18 kts | 347° |
| 2026-04-22 05:34 | 36.85953 | 117.21536 | 83 ft | 19 kts | 333° |
| 2026-04-22 05:35 | 36.86032 | 117.21480 | 83 ft | 10 kts | 329° |
| 2026-04-22 05:35 | 36.86096 | 117.21433 | 83 ft | 12 kts | 330° |
| 2026-04-22 05:35 | 36.86171 | 117.21388 | 83 ft | 10 kts | 340° |
| 2026-04-22 05:35 | 36.86220 | 117.21336 | 83 ft | 9 kts | 284° |
| 2026-04-22 05:36 | 36.86193 | 117.21275 | 83 ft | 8 kts | 194° |
| 2026-04-22 05:36 | 36.86131 | 117.21273 | 83 ft | 9 kts | 180° |
| 2026-04-22 05:36 | 36.86058 | 117.21273 | 83 ft | 11 kts | 180° |
| 2026-04-22 05:36 | 36.85971 | 117.21274 | 83 ft | 13 kts | 179° |
| 2026-04-22 05:37 | 36.85870 | 117.21274 | 83 ft | 15 kts | 180° |
| 2026-04-22 05:37 | 36.85756 | 117.21274 | 83 ft | 17 kts | 180° |
| 2026-04-22 05:37 | 36.85636 | 117.21274 | 83 ft | 16 kts | 180° |
| 2026-04-22 05:37 | 36.85517 | 117.21274 | 83 ft | 16 kts | 180° |
| 2026-04-22 05:38 | 36.85412 | 117.21273 | 83 ft | 10 kts | 180° |
| 2026-04-22 05:38 | 36.85362 | 117.21223 | 83 ft | 9 kts | 245° |
| 2026-04-22 05:38 | 36.85331 | 117.21140 | 83 ft | 11 kts | 245° |
| 2026-04-22 05:38 | 36.85289 | 117.21076 | 83 ft | 9 kts | 195° |
| 2026-04-22 05:39 | 36.85224 | 117.21074 | 83 ft | 8 kts | 180° |
| 2026-04-22 05:39 | 36.85164 | 117.21074 | 83 ft | 8 kts | 180° |
| 2026-04-22 05:39 | 36.85117 | 117.21064 | 83 ft | 6 kts | 224° |
| 2026-04-22 05:39 | 36.85105 | 117.21014 | 83 ft | 6 kts | 267° |
| 2026-04-22 05:40 | 36.85105 | 117.20959 | 83 ft | 6 kts | 270° |
| 2026-04-22 05:40 | 36.85105 | 117.20914 | 83 ft | 4 kts | 270° |
| 2026-04-22 05:40 | 36.85105 | 117.20892 | 83 ft | 0 kts | 270° |